createdAt,value
2019-04-07T00:00:19.016Z,5.70
2019-04-07T00:02:47.579Z,5.70
2019-04-07T00:05:16.178Z,5.60
2019-04-07T00:07:44.870Z,5.40
2019-04-07T00:10:14.271Z,5.40
2019-04-07T00:12:44.251Z,5.30
2019-04-07T00:15:13.026Z,5.30
2019-04-07T00:17:42.022Z,5.20
2019-04-07T00:20:10.545Z,5.30
2019-04-07T00:22:38.972Z,5.20
2019-04-07T00:25:07.438Z,5.20
2019-04-07T00:27:35.867Z,5.10
2019-04-07T00:30:06.578Z,5.20
2019-04-07T00:32:35.133Z,5.30
2019-04-07T00:35:06.322Z,5.30
2019-04-07T00:37:34.746Z,5.20
2019-04-07T00:40:03.423Z,5.20
2019-04-07T00:42:31.854Z,5.20
2019-04-07T00:45:00.940Z,5.10
2019-04-07T00:47:29.508Z,5.00
2019-04-07T00:49:57.943Z,4.90
2019-04-07T00:52:26.361Z,4.80
2019-04-07T00:54:54.783Z,4.70
2019-04-07T00:57:23.197Z,4.60
2019-04-07T00:59:51.636Z,4.60
2019-04-07T01:02:21.183Z,4.60
2019-04-07T01:04:49.815Z,4.60
2019-04-07T01:07:18.291Z,4.60
2019-04-07T01:09:47.304Z,4.60
2019-04-07T01:12:16.374Z,4.60
2019-04-07T01:14:44.802Z,4.80
2019-04-07T01:17:13.736Z,4.80
2019-04-07T01:19:43.271Z,4.70
2019-04-07T01:22:11.688Z,4.70
2019-04-07T01:24:40.665Z,4.70
2019-04-07T01:27:09.316Z,4.90
2019-04-07T01:29:37.796Z,4.80
2019-04-07T01:32:09.235Z,4.70
2019-04-07T01:34:37.761Z,4.60
2019-04-07T01:37:06.182Z,4.50
2019-04-07T01:39:34.956Z,4.60
2019-04-07T01:42:14.765Z,4.60
2019-04-07T01:44:45.056Z,4.40
2019-04-07T01:47:15.110Z,4.40
2019-04-07T01:49:54.099Z,4.40
2019-04-07T01:52:39.180Z,4.30
2019-04-07T01:55:12.871Z,4.20
2019-04-07T01:57:52.379Z,4.20
2019-04-07T02:00:22.652Z,4.30
2019-04-07T02:02:52.789Z,4.20
2019-04-07T02:05:35.287Z,4.10
2019-04-07T02:08:08.669Z,4.10
2019-04-07T02:10:55.074Z,4.10
2019-04-07T02:13:40.529Z,4.10
2019-04-07T02:16:25.894Z,4.20
2019-04-07T02:18:59.652Z,4.30
2019-04-07T02:21:33.009Z,4.30
2019-04-07T02:24:05.587Z,4.30
2019-04-07T02:26:39.031Z,4.20
2019-04-07T02:29:21.942Z,4.10
2019-04-07T02:32:04.037Z,4.10
2019-04-07T02:34:43.999Z,4.10
2019-04-07T02:37:14.313Z,4.00
2019-04-07T02:39:44.454Z,4.00
2019-04-07T02:42:20.362Z,3.90
2019-04-07T02:44:50.845Z,3.80
2019-04-07T02:47:21.395Z,3.80
2019-04-07T02:50:01.791Z,3.80
2019-04-07T02:52:33.164Z,3.80
2019-04-07T02:55:21.844Z,3.80
2019-04-07T02:58:01.387Z,3.80
2019-04-07T03:00:34.456Z,3.70
2019-04-07T03:03:21.515Z,3.60
2019-04-07T03:06:08.801Z,3.50
2019-04-07T03:08:41.948Z,3.50
2019-04-07T03:11:12.000Z,3.60
2019-04-07T03:13:58.519Z,3.70
2019-04-07T03:16:31.513Z,3.80
2019-04-07T03:19:03.285Z,3.70
2019-04-07T03:21:52.942Z,3.50
2019-04-07T03:24:29.039Z,3.30
2019-04-07T03:27:08.170Z,3.10
2019-04-07T03:29:38.498Z,3.10
2019-04-07T03:32:16.940Z,3.10
2019-04-07T03:34:53.549Z,3.20
2019-04-07T03:37:35.059Z,3.10
2019-04-07T03:40:04.790Z,3.10
2019-04-07T03:42:47.080Z,3.00
2019-04-07T03:45:29.313Z,3.00
2019-04-07T03:48:02.200Z,2.90
2019-04-07T03:50:50.945Z,2.90
2019-04-07T03:53:21.094Z,2.90
2019-04-07T03:56:08.032Z,2.80
2019-04-07T03:58:38.288Z,2.90
2019-04-07T04:01:18.439Z,3.00
2019-04-07T04:04:05.446Z,3.10
2019-04-07T04:06:35.737Z,3.10
2019-04-07T04:09:19.589Z,3.00
2019-04-07T04:11:58.395Z,2.90
2019-04-07T04:14:29.353Z,2.90
2019-04-07T04:16:58.016Z,3.00
2019-04-07T04:19:27.492Z,3.30
2019-04-07T04:21:56.698Z,3.40
2019-04-07T04:24:26.469Z,3.40
2019-04-07T04:26:55.085Z,3.40
2019-04-07T04:29:24.631Z,3.30
2019-04-07T04:31:53.329Z,3.10
2019-04-07T04:34:21.742Z,3.00
2019-04-07T04:36:50.347Z,3.10
2019-04-07T04:39:20.927Z,3.10
2019-04-07T04:41:49.208Z,3.10
2019-04-07T04:44:18.545Z,3.00
2019-04-07T04:46:47.411Z,2.90
2019-04-07T04:49:16.889Z,2.90
2019-04-07T04:51:45.585Z,2.90
2019-04-07T04:54:14.493Z,3.00
2019-04-07T04:56:43.423Z,3.00
2019-04-07T04:59:12.769Z,3.10
2019-04-07T05:01:42.238Z,3.20
2019-04-07T05:04:11.318Z,3.10
2019-04-07T05:06:39.885Z,3.10
2019-04-07T05:09:09.121Z,3.10
2019-04-07T05:11:37.733Z,3.10
2019-04-07T05:14:06.213Z,3.00
2019-04-07T05:16:34.629Z,3.20
2019-04-07T05:19:03.071Z,3.20
2019-04-07T05:21:31.533Z,3.30
2019-04-07T05:24:00.302Z,3.30
2019-04-07T05:26:29.137Z,3.30
2019-04-07T05:28:58.229Z,3.40
2019-04-07T05:31:26.713Z,3.40
2019-04-07T05:33:55.375Z,3.60
2019-04-07T05:36:28.230Z,3.70
2019-04-07T05:38:56.306Z,3.70
2019-04-07T05:41:24.788Z,3.70
2019-04-07T05:43:53.621Z,3.60
2019-04-07T05:46:22.756Z,3.50
2019-04-07T05:48:52.734Z,3.50
2019-04-07T05:51:22.100Z,3.60
2019-04-07T05:53:50.664Z,3.70
2019-04-07T05:56:19.752Z,4.00
2019-04-07T05:58:48.457Z,4.20
2019-04-07T06:01:21.749Z,4.30
2019-04-07T06:03:47.035Z,4.40
2019-04-07T06:06:15.900Z,4.40
2019-04-07T06:08:46.987Z,4.40
2019-04-07T06:11:14.800Z,4.30
2019-04-07T06:13:44.576Z,4.40
2019-04-07T06:16:14.021Z,4.50
2019-04-07T06:18:43.295Z,4.70
2019-04-07T06:21:14.105Z,4.90
2019-04-07T06:23:42.092Z,5.00
2019-04-07T06:26:11.890Z,5.20
2019-04-07T06:28:40.616Z,5.30
2019-04-07T06:31:10.505Z,5.30
2019-04-07T06:33:39.399Z,5.30
2019-04-07T06:36:08.304Z,5.30
2019-04-07T06:38:41.533Z,5.30
2019-04-07T06:41:07.331Z,5.30
2019-04-07T06:43:38.193Z,5.40
2019-04-07T06:46:28.479Z,5.70
2019-04-07T06:49:13.984Z,5.70
2019-04-07T06:52:02.964Z,5.70
2019-04-07T06:54:37.864Z,5.70
2019-04-07T06:57:17.425Z,5.70
2019-04-07T07:00:03.704Z,5.80
2019-04-07T07:02:50.920Z,5.80
2019-04-07T07:05:36.340Z,6.10
2019-04-07T07:08:10.099Z,6.10
2019-04-07T07:10:50.538Z,6.20
2019-04-07T07:13:29.794Z,6.30
2019-04-07T07:16:10.794Z,6.40
2019-04-07T07:18:56.847Z,6.50
2019-04-07T07:21:36.358Z,6.60
2019-04-07T07:24:02.722Z,6.70
2019-04-07T07:26:35.091Z,6.90
2019-04-07T07:29:02.025Z,7.00
2019-04-07T07:31:30.815Z,7.10
2019-04-07T07:33:59.309Z,7.10
2019-04-07T07:36:28.422Z,7.20
2019-04-07T07:39:01.824Z,7.30
2019-04-07T07:41:27.985Z,7.30
2019-04-07T07:44:01.434Z,7.40
2019-04-07T07:46:26.906Z,7.50
2019-04-07T07:48:59.007Z,7.50
2019-04-07T07:51:25.874Z,7.70
2019-04-07T07:53:57.141Z,7.80
2019-04-07T07:56:24.549Z,7.90
2019-04-07T07:58:53.077Z,8.10
2019-04-07T08:01:21.500Z,8.30
2019-04-07T08:03:53.009Z,8.50
2019-04-07T08:06:20.578Z,8.70
2019-04-07T08:08:49.082Z,8.90
2019-04-07T08:11:17.759Z,9.10
2019-04-07T08:13:47.077Z,9.30
2019-04-07T08:16:16.297Z,9.50
2019-04-07T08:18:46.423Z,9.70
2019-04-07T08:21:18.495Z,10.00
2019-04-07T08:23:45.511Z,10.10
2019-04-07T08:26:14.551Z,10.40
2019-04-07T08:28:43.816Z,10.60
2019-04-07T08:31:13.193Z,10.80
2019-04-07T08:33:42.155Z,11.00
2019-04-07T08:36:12.910Z,11.20
2019-04-07T08:38:41.145Z,11.30
2019-04-07T08:41:11.567Z,11.40
2019-04-07T08:43:39.937Z,11.70
2019-04-07T08:46:08.856Z,11.90
2019-04-07T08:48:37.493Z,12.10
2019-04-07T08:51:06.857Z,12.40
2019-04-07T08:53:35.452Z,12.50
2019-04-07T08:56:06.708Z,12.60
2019-04-07T08:58:38.483Z,12.60
2019-04-07T09:01:05.302Z,12.80
2019-04-07T09:03:34.633Z,12.80
2019-04-07T09:06:04.603Z,13.00
2019-04-07T09:08:36.782Z,13.00
2019-04-07T09:11:07.867Z,13.00
2019-04-07T09:13:36.396Z,13.00
2019-04-07T09:16:23.596Z,13.10
2019-04-07T09:19:01.717Z,13.10
2019-04-07T09:21:38.317Z,13.20
2019-04-07T09:24:15.103Z,13.20
2019-04-07T09:26:45.645Z,13.30
2019-04-07T09:29:26.084Z,13.40
2019-04-07T09:31:59.816Z,13.40
2019-04-07T09:34:35.606Z,13.50
2019-04-07T09:37:11.900Z,13.50
2019-04-07T09:39:54.757Z,13.50
2019-04-07T09:42:14.781Z,13.60
2019-04-07T09:44:47.748Z,13.70
2019-04-07T09:47:24.472Z,13.80
2019-04-07T09:50:01.555Z,13.80
2019-04-07T09:52:45.898Z,13.70
2019-04-07T09:55:24.315Z,13.70
2019-04-07T09:58:11.551Z,13.70
2019-04-07T10:00:55.171Z,13.60
2019-04-07T10:03:28.542Z,13.40
2019-04-07T10:05:58.706Z,13.40
2019-04-07T10:08:34.268Z,13.50
2019-04-07T10:11:09.870Z,13.50
2019-04-07T10:13:46.352Z,13.50
2019-04-07T10:16:16.557Z,13.50
2019-04-07T10:18:46.684Z,13.60
2019-04-07T10:21:26.387Z,13.70
2019-04-07T10:24:06.131Z,13.70
2019-04-07T10:26:42.987Z,13.60
2019-04-07T10:29:19.769Z,13.60
2019-04-07T10:31:54.411Z,13.70
2019-04-07T10:34:33.760Z,13.80
2019-04-07T10:37:06.840Z,13.70
2019-04-07T10:39:55.930Z,13.70
2019-04-07T10:42:28.257Z,13.70
2019-04-07T10:45:01.172Z,13.80
2019-04-07T10:47:34.733Z,13.80
2019-04-07T10:50:21.103Z,13.80
2019-04-07T10:52:54.457Z,13.80
2019-04-07T10:55:27.661Z,13.90
2019-04-07T10:58:14.058Z,14.10
2019-04-07T11:00:49.415Z,14.20
2019-04-07T11:03:19.711Z,14.40
2019-04-07T11:06:07.229Z,14.50
2019-04-07T11:08:49.469Z,14.70
2019-04-07T11:11:34.542Z,14.70
2019-04-07T11:14:22.936Z,14.70
2019-04-07T11:17:10.037Z,14.70
2019-04-07T11:19:45.959Z,14.60
2019-04-07T11:22:33.774Z,14.60
2019-04-07T11:25:16.472Z,14.60
2019-04-07T11:27:59.474Z,14.60
2019-04-07T11:30:33.229Z,14.40
2019-04-07T11:33:12.415Z,14.50
2019-04-07T11:35:43.170Z,14.50
2019-04-07T11:38:13.667Z,14.40
2019-04-07T11:41:01.506Z,14.40
2019-04-07T11:43:34.750Z,14.50
2019-04-07T11:46:14.015Z,14.60
2019-04-07T11:48:44.971Z,14.80
2019-04-07T11:51:18.498Z,14.80
2019-04-07T11:53:54.327Z,14.70
2019-04-07T11:56:34.021Z,14.70
2019-04-07T11:59:08.800Z,14.70
2019-04-07T12:01:49.806Z,14.70
2019-04-07T12:04:28.298Z,14.80
2019-04-07T12:07:07.810Z,14.90
2019-04-07T12:09:41.230Z,14.90
2019-04-07T12:12:23.105Z,15.20
2019-04-07T12:15:12.032Z,15.40
2019-04-07T12:17:51.305Z,15.50
2019-04-07T12:20:21.514Z,15.70
2019-04-07T12:22:58.261Z,15.80
2019-04-07T12:25:31.360Z,15.70
2019-04-07T12:28:15.763Z,15.70
2019-04-07T12:31:00.375Z,15.70
2019-04-07T12:33:31.158Z,15.60
2019-04-07T12:36:01.965Z,15.60
2019-04-07T12:38:43.182Z,15.60
2019-04-07T12:41:21.993Z,15.70
2019-04-07T12:44:00.556Z,15.80
2019-04-07T12:46:30.782Z,16.00
2019-04-07T12:49:10.041Z,16.20
2019-04-07T12:51:44.107Z,16.20
2019-04-07T12:54:20.578Z,16.10
2019-04-07T12:56:54.719Z,15.90
2019-04-07T12:59:47.756Z,15.80
2019-04-07T13:02:19.979Z,15.80
2019-04-07T13:04:50.554Z,15.80
2019-04-07T13:07:20.742Z,15.80
2019-04-07T13:09:51.666Z,15.80
2019-04-07T13:12:25.691Z,15.90
2019-04-07T13:15:11.018Z,15.90
2019-04-07T13:17:39.890Z,15.90
2019-04-07T13:20:26.835Z,16.00
2019-04-07T13:23:00.320Z,16.20
2019-04-07T13:25:31.319Z,16.40
2019-04-07T13:28:10.990Z,16.60
2019-04-07T13:30:41.186Z,16.70
2019-04-07T13:33:28.967Z,16.50
2019-04-07T13:36:14.938Z,16.50
2019-04-07T13:38:45.827Z,16.30
2019-04-07T13:41:42.826Z,16.20
2019-04-07T13:44:10.697Z,16.40
2019-04-07T13:46:41.168Z,16.60
2019-04-07T13:49:17.217Z,16.80
2019-04-07T13:51:47.652Z,16.80
2019-04-07T13:54:33.801Z,16.90
2019-04-07T13:57:04.476Z,16.80
2019-04-07T13:59:42.955Z,16.80
2019-04-07T14:02:30.323Z,16.70
2019-04-07T14:34:49.871Z,17.70
2019-04-07T14:37:36.239Z,17.90
2019-04-07T14:40:26.141Z,18.00
2019-04-07T14:42:59.384Z,18.10
2019-04-07T14:45:29.510Z,18.10
2019-04-07T14:48:05.403Z,18.30
2019-04-07T14:50:48.386Z,18.30
2019-04-07T14:53:33.669Z,18.60
2019-04-07T14:56:20.577Z,19.30
2019-04-07T14:59:06.586Z,20.40
2019-04-07T15:01:52.389Z,20.90
2019-04-07T15:04:22.650Z,21.40
2019-04-07T15:07:10.376Z,21.50
2019-04-07T15:09:41.420Z,21.10
2019-04-07T15:12:17.632Z,20.50
2019-04-07T15:14:41.687Z,20.00
2019-04-07T15:17:10.979Z,19.30
2019-04-07T15:19:39.799Z,18.70
2019-04-07T15:22:08.392Z,18.50
2019-04-07T15:24:37.638Z,18.50
2019-04-07T15:27:07.931Z,18.80
2019-04-07T15:29:41.779Z,18.80
2019-04-07T15:32:07.306Z,19.00
2019-04-07T15:34:39.561Z,19.20
2019-04-07T15:37:06.697Z,19.00
2019-04-07T15:39:37.225Z,18.80
2019-04-07T15:42:07.007Z,18.50
2019-04-07T15:44:37.222Z,18.40
2019-04-07T15:47:06.164Z,17.90
2019-04-07T15:49:34.772Z,17.90
2019-04-07T15:52:07.853Z,17.80
2019-04-07T15:54:33.901Z,17.90
2019-04-07T15:57:02.540Z,18.10
2019-04-07T15:59:31.406Z,18.20
2019-04-07T16:02:00.045Z,18.20
2019-04-07T16:04:29.635Z,18.10
2019-04-07T16:06:59.040Z,18.00
2019-04-07T16:09:36.095Z,17.80
2019-04-07T16:11:59.228Z,17.60
2019-04-07T16:14:28.061Z,17.30
2019-04-07T16:16:59.642Z,17.20
2019-04-07T16:19:37.395Z,17.10
2019-04-07T16:21:57.217Z,17.00
2019-04-07T16:24:25.837Z,16.90
2019-04-07T16:26:54.712Z,16.70
2019-04-07T16:29:23.524Z,16.70
2019-04-07T16:31:55.795Z,16.70
2019-04-07T16:34:22.827Z,16.60
2019-04-07T16:36:52.987Z,16.60
2019-04-07T16:39:21.571Z,16.60
2019-04-07T16:41:50.200Z,16.60
2019-04-07T16:44:19.057Z,16.50
2019-04-07T16:46:47.645Z,16.40
2019-04-07T16:49:17.957Z,16.30
2019-04-07T16:51:47.225Z,16.20
2019-04-07T16:54:16.386Z,16.10
2019-04-07T16:56:45.560Z,16.00
2019-04-07T16:59:14.112Z,15.90
2019-04-07T17:01:43.314Z,15.80
2019-04-07T17:04:12.659Z,15.90
2019-04-07T17:06:42.150Z,15.80
2019-04-07T17:09:23.142Z,15.70
2019-04-07T17:11:49.332Z,15.60
2019-04-07T17:14:18.424Z,15.50
2019-04-07T17:16:47.221Z,15.50
2019-04-07T17:19:16.266Z,15.40
2019-04-07T17:21:45.038Z,15.20
2019-04-07T17:24:14.237Z,15.10
2019-04-07T17:26:43.540Z,15.00
2019-04-07T17:29:12.231Z,15.00
2019-04-07T17:31:41.166Z,14.90
2019-04-07T17:34:11.505Z,14.90
2019-04-07T17:36:40.775Z,14.80
2019-04-07T17:39:14.423Z,14.80
2019-04-07T17:41:43.691Z,14.80
2019-04-07T17:44:29.903Z,14.70
2019-04-07T17:47:15.740Z,14.60
2019-04-07T17:49:48.820Z,14.60
2019-04-07T17:52:19.702Z,14.50
2019-04-07T17:54:52.496Z,14.60
2019-04-07T17:57:36.487Z,14.40
2019-04-07T18:00:16.443Z,14.20
2019-04-07T18:03:05.272Z,14.10
2019-04-07T18:05:44.212Z,14.00
2019-04-07T18:08:23.282Z,14.00
2019-04-07T18:11:00.128Z,13.90
2019-04-07T18:13:49.071Z,13.90
2019-04-07T18:16:28.754Z,13.80
2019-04-07T18:19:16.781Z,13.80
2019-04-07T18:21:53.820Z,13.70
2019-04-07T18:24:27.961Z,13.70
2019-04-07T18:27:15.591Z,13.60
2019-04-07T18:29:50.307Z,13.50
2019-04-07T18:32:20.817Z,13.50
2019-04-07T18:35:07.638Z,13.50
2019-04-07T18:37:54.012Z,13.50
2019-04-07T18:40:40.774Z,13.50
2019-04-07T18:43:20.551Z,13.40
2019-04-07T18:45:54.765Z,13.50
2019-04-07T18:48:28.847Z,13.50
2019-04-07T18:51:10.655Z,13.40
2019-04-07T18:53:48.681Z,13.30
2019-04-07T18:56:20.381Z,13.30
2019-04-07T18:58:56.486Z,13.20
2019-04-07T19:01:29.329Z,13.30
2019-04-07T19:04:04.620Z,13.30
2019-04-07T19:06:44.663Z,13.20
2019-04-07T19:09:30.260Z,13.30
2019-04-07T19:12:20.293Z,13.20
2019-04-07T19:14:56.158Z,13.20
2019-04-07T19:17:38.242Z,13.10
2019-04-07T19:20:23.677Z,13.00
2019-04-07T19:22:56.470Z,13.00
2019-04-07T19:25:29.726Z,13.00
2019-04-07T19:28:15.931Z,13.00
2019-04-07T19:30:52.470Z,13.00
2019-04-07T19:33:24.410Z,12.90
2019-04-07T19:36:00.457Z,12.90
2019-04-07T19:38:43.335Z,13.00
2019-04-07T19:41:15.000Z,12.90
2019-04-07T19:43:57.051Z,12.90
2019-04-07T19:46:38.877Z,12.90
2019-04-07T19:49:13.120Z,12.90
2019-04-07T19:51:41.579Z,12.90
2019-04-07T19:54:28.028Z,12.90
2019-04-07T19:57:13.330Z,12.80
2019-04-07T19:59:46.503Z,12.80
2019-04-07T20:02:36.354Z,12.70
2019-04-07T20:05:10.486Z,12.70
2019-04-07T20:07:43.998Z,12.60
2019-04-07T20:10:25.366Z,12.60
2019-04-07T20:13:13.086Z,12.60
2019-04-07T20:15:49.462Z,12.50
2019-04-07T20:18:24.310Z,12.60
2019-04-07T20:20:55.103Z,12.50
2019-04-07T20:23:30.989Z,12.50
2019-04-07T20:26:21.450Z,12.50
2019-04-07T20:28:57.108Z,12.50
2019-04-07T20:31:42.867Z,12.40
2019-04-07T20:34:18.870Z,12.40
2019-04-07T20:37:07.726Z,12.40
2019-04-07T20:39:56.250Z,12.40
2019-04-07T20:42:48.497Z,12.40
2019-04-07T20:45:35.424Z,12.30
2019-04-07T20:48:33.365Z,12.40
2019-04-07T20:51:08.498Z,12.40
2019-04-07T20:53:39.516Z,12.40
2019-04-07T20:56:31.390Z,12.40
2019-04-07T20:59:09.919Z,12.40
2019-04-07T21:01:43.013Z,12.40
2019-04-07T21:04:24.065Z,12.40
2019-04-07T21:07:09.960Z,12.30
2019-04-07T21:09:40.145Z,12.30
2019-04-07T21:12:17.270Z,12.40
2019-04-07T21:14:47.540Z,12.30
2019-04-07T21:17:32.648Z,12.20
2019-04-07T21:20:14.597Z,12.20
2019-04-07T21:23:01.237Z,12.10
2019-04-07T21:25:35.019Z,12.20
2019-04-07T21:28:08.973Z,12.20
2019-04-07T21:30:42.954Z,12.20
2019-04-07T21:33:25.975Z,12.20
2019-04-07T21:36:14.147Z,12.20
2019-04-07T21:38:47.490Z,12.20
2019-04-07T21:41:30.711Z,12.20
2019-04-07T21:44:01.694Z,12.20
2019-04-07T21:46:40.970Z,12.20
2019-04-07T21:49:20.587Z,12.10
2019-04-07T21:51:51.445Z,12.10
2019-04-07T21:54:28.113Z,12.10
2019-04-07T21:56:58.329Z,12.10
2019-04-07T21:59:43.840Z,12.20
2019-04-07T22:02:19.668Z,12.10
2019-04-07T22:04:56.936Z,12.10
2019-04-07T22:07:46.260Z,12.00
2019-04-07T22:10:18.750Z,11.90
2019-04-07T22:12:46.587Z,11.80
2019-04-07T22:15:15.393Z,11.90
2019-04-07T22:17:43.902Z,11.90
2019-04-07T22:20:17.688Z,11.90
2019-04-07T22:22:43.312Z,11.80
2019-04-07T22:25:15.528Z,11.80
2019-04-07T22:27:44.188Z,11.70
2019-04-07T22:30:13.230Z,11.70
2019-04-07T22:32:42.670Z,11.70
2019-04-07T22:35:12.932Z,11.80
2019-04-07T22:37:41.832Z,11.80
2019-04-07T22:40:17.228Z,11.80
2019-04-07T22:42:47.832Z,11.90
2019-04-07T22:45:16.137Z,11.80
2019-04-07T22:47:44.605Z,11.70
2019-04-07T22:50:13.524Z,11.70
2019-04-07T22:52:42.041Z,11.70
2019-04-07T22:55:10.717Z,11.70
2019-04-07T22:57:39.177Z,11.70
2019-04-07T23:00:12.794Z,11.70
2019-04-07T23:02:42.304Z,11.70
2019-04-07T23:05:11.446Z,11.60
2019-04-07T23:07:39.976Z,11.70
2019-04-07T23:10:09.101Z,11.70
2019-04-07T23:12:38.150Z,11.70
2019-04-07T23:15:07.853Z,11.60
2019-04-07T23:17:36.456Z,11.60
2019-04-07T23:20:09.048Z,11.60
2019-04-07T23:22:38.286Z,11.60
2019-04-07T23:25:07.808Z,11.60
2019-04-07T23:27:36.441Z,11.60
2019-04-07T23:30:07.485Z,11.60
2019-04-07T23:32:35.893Z,11.60
2019-04-07T23:35:06.661Z,11.60
2019-04-07T23:37:35.073Z,11.60
2019-04-07T23:40:06.554Z,11.50
2019-04-07T23:42:36.040Z,11.60
2019-04-07T23:45:06.674Z,11.60
2019-04-07T23:47:35.442Z,11.60
2019-04-07T23:50:07.054Z,11.50
2019-04-07T23:52:35.658Z,11.50
2019-04-07T23:55:04.386Z,11.50
2019-04-07T23:57:32.935Z,11.50
